createdAt,value
2022-11-26T00:01:25.006Z,6.67
2022-11-26T00:03:53.596Z,7.10
2022-11-26T00:06:30.406Z,7.17
2022-11-26T00:08:59.784Z,6.77
2022-11-26T00:11:29.526Z,6.77
2022-11-26T00:13:57.444Z,7.50
2022-11-26T00:16:30.641Z,6.80
2022-11-26T00:18:58.703Z,6.50
2022-11-26T00:21:38.546Z,7.60
2022-11-26T00:24:14.909Z,6.97
2022-11-26T00:26:44.450Z,7.10
2022-11-26T00:29:12.276Z,6.60
2022-11-26T00:31:40.174Z,6.67
2022-11-26T00:34:08.254Z,6.90
2022-11-26T00:36:36.310Z,7.00
2022-11-26T00:39:07.016Z,7.03
2022-11-26T00:41:38.431Z,7.70
2022-11-26T00:44:18.735Z,7.80
2022-11-26T00:46:46.826Z,6.73
2022-11-26T00:49:15.132Z,6.90
2022-11-26T00:51:44.098Z,7.47
2022-11-26T00:54:15.226Z,6.93
2022-11-26T00:56:43.084Z,6.77
2022-11-26T00:59:14.595Z,7.50
2022-11-26T01:01:42.905Z,7.60
2022-11-26T01:04:11.048Z,7.33
2022-11-26T01:06:42.600Z,7.17
2022-11-26T01:09:17.518Z,7.13
2022-11-26T01:11:49.762Z,8.07
2022-11-26T01:14:23.920Z,7.47
2022-11-26T01:16:54.134Z,7.07
2022-11-26T01:19:22.356Z,7.30
2022-11-26T01:21:50.517Z,7.17
2022-11-26T01:24:18.557Z,8.00
2022-11-26T01:26:47.031Z,8.47
2022-11-26T01:29:21.263Z,7.90
2022-11-26T01:31:53.728Z,8.20
2022-11-26T01:34:22.216Z,9.20
2022-11-26T01:36:50.471Z,8.63
2022-11-26T01:39:21.114Z,9.03
2022-11-26T01:41:58.606Z,9.07
2022-11-26T01:44:29.138Z,9.37
2022-11-26T01:47:01.951Z,9.40
2022-11-26T01:49:33.536Z,10.70
2022-11-26T01:52:06.183Z,10.10
2022-11-26T01:54:39.625Z,10.67
2022-11-26T01:57:12.252Z,10.40
2022-11-26T01:59:48.541Z,11.67
2022-11-26T02:02:19.207Z,10.20
2022-11-26T02:04:56.650Z,11.33
2022-11-26T02:07:24.947Z,11.93
2022-11-26T02:09:53.119Z,11.90
2022-11-26T02:12:21.748Z,11.97
2022-11-26T02:14:50.407Z,11.80
2022-11-26T02:17:26.878Z,11.27
2022-11-26T02:20:27.127Z,12.87
2022-11-26T02:23:36.771Z,13.40
2022-11-26T02:26:46.163Z,12.80
2022-11-26T02:29:25.100Z,13.20
2022-11-26T02:32:00.738Z,13.13
2022-11-26T02:34:39.963Z,13.03
2022-11-26T02:37:15.004Z,12.70
2022-11-26T02:39:42.945Z,13.00
2022-11-26T02:42:27.101Z,12.80
2022-11-26T02:44:57.279Z,13.63
2022-11-26T02:47:28.814Z,12.47
2022-11-26T02:50:00.516Z,12.67
2022-11-26T02:52:29.548Z,14.10
2022-11-26T02:54:58.321Z,12.63
2022-11-26T02:57:31.335Z,13.07
2022-11-26T02:59:59.651Z,12.90
2022-11-26T03:02:35.543Z,13.73
2022-11-26T03:05:06.260Z,13.30
2022-11-26T03:07:37.633Z,12.13
2022-11-26T03:10:07.190Z,13.67
2022-11-26T03:12:35.178Z,11.63
2022-11-26T03:15:03.192Z,12.53
2022-11-26T03:17:32.707Z,13.13
2022-11-26T03:20:00.750Z,13.73
2022-11-26T03:22:29.101Z,12.60
2022-11-26T03:24:56.947Z,11.90
2022-11-26T03:27:24.943Z,12.10
2022-11-26T03:29:53.381Z,12.83
2022-11-26T03:32:21.225Z,13.10
2022-11-26T03:34:50.631Z,11.83
2022-11-26T03:37:20.259Z,11.97
2022-11-26T03:39:48.094Z,11.33
2022-11-26T03:42:15.966Z,12.00
2022-11-26T03:44:43.858Z,11.50
2022-11-26T03:47:11.648Z,11.70
2022-11-26T03:49:39.586Z,11.73
2022-11-26T03:52:08.975Z,11.57
2022-11-26T03:54:37.185Z,11.03
2022-11-26T03:57:05.378Z,10.27
2022-11-26T03:59:33.505Z,10.63
2022-11-26T04:02:01.293Z,10.70
2022-11-26T04:04:29.365Z,10.23
2022-11-26T04:06:57.396Z,11.60
2022-11-26T04:09:26.703Z,10.67
2022-11-26T04:11:54.565Z,9.93
2022-11-26T04:14:22.632Z,10.33
2022-11-26T04:16:50.516Z,10.17
2022-11-26T04:19:18.451Z,11.80
2022-11-26T04:21:46.358Z,10.90
2022-11-26T04:24:14.331Z,11.30
2022-11-26T04:26:43.571Z,11.10
2022-11-26T04:29:11.539Z,10.23
2022-11-26T04:31:39.476Z,10.40
2022-11-26T04:34:07.419Z,10.57
2022-11-26T04:36:35.905Z,12.00
2022-11-26T04:39:03.730Z,10.70
2022-11-26T04:41:31.628Z,10.97
2022-11-26T04:44:00.932Z,10.57
2022-11-26T04:46:29.114Z,12.57
2022-11-26T04:48:57.108Z,11.53
2022-11-26T04:51:25.118Z,11.30
2022-11-26T04:53:55.715Z,10.90
2022-11-26T04:56:24.005Z,11.20
2022-11-26T04:58:52.207Z,10.90
2022-11-26T05:01:21.476Z,10.40
2022-11-26T05:03:49.321Z,12.23
2022-11-26T05:06:17.286Z,10.90
2022-11-26T05:08:45.129Z,11.27
2022-11-26T05:11:13.030Z,12.63
2022-11-26T05:13:41.271Z,12.53
2022-11-26T05:16:09.406Z,11.57
2022-11-26T05:18:38.687Z,11.87
2022-11-26T05:21:06.889Z,12.07
2022-11-26T05:23:34.800Z,10.77
2022-11-26T05:26:02.652Z,10.53
2022-11-26T05:28:30.533Z,10.77
2022-11-26T05:31:02.619Z,11.03
2022-11-26T05:33:30.896Z,11.20
2022-11-26T05:36:00.120Z,11.43
2022-11-26T05:38:28.541Z,10.43
2022-11-26T05:40:56.672Z,11.77
2022-11-26T05:43:24.517Z,11.97
2022-11-26T05:45:52.400Z,11.23
2022-11-26T05:48:20.396Z,11.73
2022-11-26T05:50:53.113Z,11.73
2022-11-26T05:53:23.822Z,12.37
2022-11-26T05:55:51.803Z,11.33
2022-11-26T05:58:19.866Z,11.07
2022-11-26T06:00:47.830Z,10.93
2022-11-26T06:03:20.062Z,11.13
2022-11-26T06:05:48.775Z,10.50
2022-11-26T06:08:16.814Z,10.57
2022-11-26T06:10:46.142Z,11.07
2022-11-26T06:13:14.307Z,10.03
2022-11-26T06:15:42.292Z,11.10
2022-11-26T06:18:10.396Z,10.73
2022-11-26T06:20:39.249Z,10.97
2022-11-26T06:23:07.158Z,9.97
2022-11-26T06:25:35.273Z,9.93
2022-11-26T06:28:04.747Z,10.83
2022-11-26T06:30:32.668Z,10.80
2022-11-26T06:33:00.533Z,11.17
2022-11-26T06:35:28.594Z,11.83
2022-11-26T06:37:57.031Z,11.63
2022-11-26T06:40:25.059Z,10.97
2022-11-26T06:42:54.171Z,11.63
2022-11-26T06:45:24.465Z,11.83
2022-11-26T06:47:53.240Z,14.50
2022-11-26T06:50:23.713Z,14.70
2022-11-26T06:52:53.013Z,14.97
2022-11-26T06:55:21.515Z,15.43
2022-11-26T06:57:51.437Z,15.87
2022-11-26T07:00:20.312Z,15.80
2022-11-26T07:02:49.981Z,15.03
2022-11-26T07:05:18.404Z,15.37
2022-11-26T07:07:46.339Z,16.93
2022-11-26T07:10:14.297Z,17.00
2022-11-26T07:12:42.213Z,17.70
2022-11-26T07:15:11.215Z,17.90
2022-11-26T07:17:39.469Z,17.93
2022-11-26T07:20:10.198Z,19.57
2022-11-26T07:22:38.085Z,20.00
2022-11-26T07:25:12.111Z,19.83
2022-11-26T07:27:41.083Z,19.53
2022-11-26T07:30:10.457Z,19.63
2022-11-26T07:32:38.516Z,18.67
2022-11-26T07:35:08.790Z,19.40
2022-11-26T07:37:36.835Z,22.23
2022-11-26T07:40:05.554Z,21.17
2022-11-26T07:42:34.481Z,22.07
2022-11-26T07:45:03.788Z,20.80
2022-11-26T07:47:31.656Z,22.13
2022-11-26T07:49:59.655Z,23.43
2022-11-26T07:52:29.160Z,21.47
2022-11-26T07:54:57.092Z,21.53
2022-11-26T07:57:25.460Z,23.40
2022-11-26T07:59:53.438Z,23.20
2022-11-26T08:02:21.409Z,23.07
2022-11-26T08:04:49.818Z,22.20
2022-11-26T08:07:24.330Z,23.50
2022-11-26T08:09:55.552Z,24.50
2022-11-26T08:12:23.654Z,24.70
2022-11-26T08:14:51.515Z,23.57
2022-11-26T08:17:19.605Z,24.43
2022-11-26T08:19:47.488Z,24.20
2022-11-26T08:22:15.395Z,25.20
2022-11-26T08:24:43.264Z,25.30
2022-11-26T08:27:12.649Z,23.97
2022-11-26T08:29:40.759Z,23.30
2022-11-26T08:32:08.799Z,22.50
2022-11-26T08:34:36.839Z,22.00
2022-11-26T08:37:04.802Z,22.07
2022-11-26T08:39:32.729Z,21.53
2022-11-26T08:42:00.525Z,21.23
2022-11-26T08:44:29.764Z,20.37
2022-11-26T08:46:57.688Z,21.27
2022-11-26T08:49:25.673Z,20.67
2022-11-26T08:51:56.563Z,23.60
2022-11-26T08:54:24.765Z,21.03
2022-11-26T08:56:52.601Z,19.07
2022-11-26T08:59:22.969Z,21.67
2022-11-26T09:01:52.442Z,20.97
2022-11-26T09:04:20.455Z,21.17
2022-11-26T09:06:48.448Z,21.47
2022-11-26T09:09:17.717Z,22.43
2022-11-26T09:11:51.252Z,21.67
2022-11-26T09:14:23.116Z,20.50
2022-11-26T09:16:52.394Z,20.30
2022-11-26T09:19:20.339Z,20.97
2022-11-26T09:21:48.735Z,22.80
2022-11-26T09:24:17.537Z,21.17
2022-11-26T09:26:48.554Z,20.37
2022-11-26T09:29:19.557Z,20.07
2022-11-26T09:32:21.862Z,21.00
2022-11-26T09:34:38.626Z,21.63
2022-11-26T09:37:06.817Z,19.43
2022-11-26T09:39:35.030Z,20.97
2022-11-26T09:42:07.902Z,20.87
2022-11-26T09:44:53.527Z,19.97
2022-11-26T09:47:23.758Z,20.47
2022-11-26T09:50:03.837Z,18.37
2022-11-26T09:52:41.996Z,20.20
2022-11-26T09:55:16.460Z,20.43
2022-11-26T09:57:50.595Z,19.20
2022-11-26T10:00:28.226Z,19.70
2022-11-26T10:02:58.164Z,18.07
2022-11-26T10:05:38.932Z,18.23
2022-11-26T10:08:17.395Z,18.50
2022-11-26T10:10:53.912Z,18.17
2022-11-26T10:13:29.202Z,17.17
2022-11-26T10:16:08.928Z,18.53
2022-11-26T10:18:46.913Z,18.10
2022-11-26T10:21:37.916Z,17.97
2022-11-26T10:24:22.489Z,18.60
2022-11-26T10:26:51.037Z,16.20
2022-11-26T10:29:24.092Z,16.33
2022-11-26T10:31:57.643Z,16.13
2022-11-26T10:34:33.379Z,14.60
2022-11-26T10:37:05.539Z,16.17
2022-11-26T10:39:33.439Z,17.77
2022-11-26T10:42:05.597Z,16.67
2022-11-26T10:44:40.571Z,16.27
2022-11-26T10:47:29.691Z,18.00
2022-11-26T10:50:40.007Z,17.50
2022-11-26T10:53:07.468Z,16.67
2022-11-26T10:55:40.075Z,17.40
2022-11-26T10:58:17.254Z,16.80
2022-11-26T11:00:54.764Z,18.27
2022-11-26T11:03:44.494Z,16.33
2022-11-26T11:06:28.150Z,17.00
2022-11-26T11:08:57.621Z,16.40
2022-11-26T11:11:27.464Z,16.70
2022-11-26T11:13:56.217Z,16.10
2022-11-26T11:16:28.479Z,18.57
2022-11-26T11:18:59.367Z,18.67
2022-11-26T11:21:31.342Z,17.43
2022-11-26T11:24:15.345Z,17.47
2022-11-26T11:26:46.424Z,16.83
2022-11-26T11:29:33.674Z,17.73
2022-11-26T11:32:04.519Z,18.87
2022-11-26T11:34:35.134Z,18.10
2022-11-26T11:37:05.752Z,17.73
2022-11-26T11:39:36.513Z,18.37
2022-11-26T11:42:09.868Z,18.60
2022-11-26T11:44:43.147Z,17.37
2022-11-26T11:47:32.930Z,17.80
2022-11-26T11:50:22.129Z,18.67
2022-11-26T11:53:20.273Z,18.77
2022-11-26T11:56:12.719Z,17.17
2022-11-26T11:59:08.063Z,18.27
2022-11-26T12:01:54.553Z,18.43
2022-11-26T12:04:32.533Z,17.97
2022-11-26T12:07:28.480Z,20.37
2022-11-26T12:10:06.785Z,18.80
2022-11-26T12:12:39.521Z,18.03
2022-11-26T12:15:13.062Z,18.03
2022-11-26T12:17:46.127Z,20.30
2022-11-26T12:20:20.176Z,19.37
2022-11-26T12:22:58.316Z,19.03
2022-11-26T12:25:35.325Z,19.67
2022-11-26T12:28:14.052Z,18.40
2022-11-26T12:30:51.475Z,18.43
2022-11-26T12:33:25.086Z,18.40
2022-11-26T12:35:56.558Z,17.37
2022-11-26T12:38:29.062Z,19.33
2022-11-26T12:41:02.523Z,19.23
2022-11-26T12:43:47.677Z,19.70
2022-11-26T12:46:20.764Z,19.07
2022-11-26T12:48:55.990Z,21.30
2022-11-26T12:51:34.573Z,20.30
2022-11-26T12:54:12.013Z,20.13
2022-11-26T12:56:49.968Z,18.67
2022-11-26T12:59:26.920Z,18.57
2022-11-26T13:01:54.961Z,19.13
2022-11-26T13:04:37.741Z,20.83
2022-11-26T13:07:26.897Z,20.40
2022-11-26T13:10:05.469Z,19.37
2022-11-26T13:12:45.733Z,20.83
2022-11-26T13:15:23.096Z,21.53
2022-11-26T13:17:52.980Z,21.40
2022-11-26T13:20:54.900Z,21.60
2022-11-26T13:24:03.594Z,20.10
2022-11-26T13:26:49.342Z,19.77
2022-11-26T13:29:31.165Z,21.03
2022-11-26T13:32:19.824Z,20.10
2022-11-26T13:35:05.756Z,21.63
2022-11-26T13:37:56.153Z,21.27
2022-11-26T13:40:50.299Z,20.60
2022-11-26T13:43:55.718Z,18.00
2022-11-26T13:46:25.855Z,18.57
2022-11-26T13:49:01.350Z,20.03
2022-11-26T13:51:37.142Z,18.43
2022-11-26T13:54:12.441Z,18.20
2022-11-26T13:56:42.559Z,16.47
2022-11-26T13:59:18.289Z,17.50
2022-11-26T14:01:47.302Z,18.83
2022-11-26T14:04:37.865Z,19.77
2022-11-26T14:07:21.933Z,20.37
2022-11-26T14:09:53.797Z,20.73
2022-11-26T14:12:23.002Z,18.47
2022-11-26T14:14:51.989Z,19.60
2022-11-26T14:17:24.988Z,18.77
2022-11-26T14:20:05.676Z,20.07
2022-11-26T14:22:35.730Z,19.37
2022-11-26T14:25:06.021Z,19.77
2022-11-26T14:27:35.603Z,20.40
2022-11-26T14:30:26.894Z,21.27
2022-11-26T14:33:10.341Z,21.30
2022-11-26T14:35:41.296Z,20.57
2022-11-26T14:38:24.764Z,21.37
2022-11-26T14:40:58.126Z,21.33
2022-11-26T14:43:26.140Z,20.67
2022-11-26T14:46:12.697Z,20.50
2022-11-26T14:48:44.499Z,19.50
2022-11-26T14:51:21.852Z,21.57
2022-11-26T14:53:51.050Z,20.30
2022-11-26T14:56:21.064Z,22.77
2022-11-26T14:58:52.654Z,20.33
2022-11-26T15:01:22.823Z,20.90
2022-11-26T15:03:59.085Z,21.30
2022-11-26T15:06:34.858Z,19.83
2022-11-26T15:09:15.345Z,20.40
2022-11-26T15:11:48.825Z,22.03
2022-11-26T15:14:22.473Z,21.50
2022-11-26T15:16:56.751Z,21.27
2022-11-26T15:19:25.688Z,19.73
2022-11-26T15:21:55.387Z,19.30
2022-11-26T15:24:23.464Z,21.43
2022-11-26T15:26:51.948Z,19.73
2022-11-26T15:29:41.083Z,19.23
2022-11-26T15:32:27.903Z,21.00
2022-11-26T15:34:58.528Z,20.53
2022-11-26T15:37:28.386Z,20.67
2022-11-26T15:40:11.254Z,21.07
2022-11-26T15:42:40.618Z,20.50
2022-11-26T15:45:16.340Z,19.23
2022-11-26T15:47:47.885Z,18.83
2022-11-26T15:50:27.507Z,19.70
2022-11-26T15:53:01.970Z,20.50
2022-11-26T15:55:33.383Z,20.80
2022-11-26T15:58:05.755Z,18.60
2022-11-26T16:00:37.404Z,19.43
2022-11-26T16:03:06.137Z,19.37
2022-11-26T16:05:38.125Z,20.20
2022-11-26T16:08:25.041Z,20.50
2022-11-26T16:10:57.136Z,21.53
2022-11-26T16:13:28.995Z,19.80
2022-11-26T16:16:02.102Z,23.97
2022-11-26T16:18:37.490Z,23.30
2022-11-26T16:21:08.336Z,22.87
2022-11-26T16:23:37.836Z,21.00
2022-11-26T16:26:15.312Z,23.17
2022-11-26T16:28:43.721Z,23.97
2022-11-26T16:31:11.774Z,24.27
2022-11-26T16:33:39.912Z,23.27
2022-11-26T16:36:19.162Z,21.90
2022-11-26T16:38:49.156Z,22.40
2022-11-26T16:41:19.057Z,23.57
2022-11-26T16:43:47.109Z,22.63
2022-11-26T16:46:17.623Z,22.10
2022-11-26T16:48:47.164Z,25.47
2022-11-26T16:51:15.366Z,23.53
2022-11-26T16:53:43.349Z,22.90
2022-11-26T16:56:20.585Z,21.13
2022-11-26T16:58:48.920Z,23.03
2022-11-26T17:01:17.281Z,22.93
2022-11-26T17:03:45.431Z,24.27
2022-11-26T17:06:17.021Z,23.70
2022-11-26T17:08:49.664Z,22.20
2022-11-26T17:11:19.587Z,23.33
2022-11-26T17:13:47.688Z,22.93
2022-11-26T17:16:19.210Z,22.73
2022-11-26T17:18:47.200Z,23.40
2022-11-26T17:21:15.529Z,23.30
2022-11-26T17:23:44.659Z,24.00
2022-11-26T17:26:21.351Z,22.30
2022-11-26T17:28:50.437Z,22.07
2022-11-26T17:31:18.954Z,22.90
2022-11-26T17:33:47.110Z,23.13
2022-11-26T17:36:20.438Z,22.90
2022-11-26T17:38:49.322Z,25.07
2022-11-26T17:41:17.679Z,24.47
2022-11-26T17:43:47.193Z,24.67
2022-11-26T17:46:17.669Z,25.03
2022-11-26T17:48:46.095Z,25.03
2022-11-26T17:51:15.272Z,24.60
2022-11-26T17:53:44.135Z,24.83
2022-11-26T17:56:24.102Z,25.87
2022-11-26T17:58:54.080Z,24.73
2022-11-26T18:01:22.597Z,25.87
2022-11-26T18:03:52.366Z,27.40
2022-11-26T18:06:27.152Z,27.17
2022-11-26T18:08:54.988Z,26.77
2022-11-26T18:11:43.088Z,25.80
2022-11-26T18:14:12.660Z,27.17
2022-11-26T18:16:41.088Z,28.37
2022-11-26T18:19:10.691Z,27.17
2022-11-26T18:21:38.795Z,27.53
2022-11-26T18:24:07.949Z,27.00
2022-11-26T18:26:36.764Z,25.73
2022-11-26T18:29:05.238Z,25.77
2022-11-26T18:31:39.501Z,25.60
2022-11-26T18:34:08.606Z,27.67
2022-11-26T18:36:36.419Z,26.43
2022-11-26T18:39:04.851Z,26.07
2022-11-26T18:41:33.110Z,25.40
2022-11-26T18:44:02.331Z,28.27
2022-11-26T18:46:30.670Z,27.37
2022-11-26T18:49:00.566Z,25.37
2022-11-26T18:51:28.897Z,27.73
2022-11-26T18:53:56.791Z,28.53
2022-11-26T18:56:25.627Z,29.73
2022-11-26T18:58:53.863Z,29.67
2022-11-26T19:01:23.407Z,30.20
2022-11-26T19:03:52.205Z,30.57
2022-11-26T19:06:24.028Z,27.63
2022-11-26T19:08:58.300Z,27.80
2022-11-26T19:11:26.568Z,27.67
2022-11-26T19:13:56.000Z,28.33
2022-11-26T19:16:25.295Z,27.23
2022-11-26T19:18:53.167Z,26.37
2022-11-26T19:21:25.204Z,27.73
2022-11-26T19:23:54.295Z,28.30
2022-11-26T19:26:22.876Z,28.90
2022-11-26T19:28:51.428Z,30.03
2022-11-26T19:31:21.128Z,30.03
2022-11-26T19:33:54.058Z,30.03
2022-11-26T19:36:23.520Z,27.63
2022-11-26T19:38:56.058Z,27.63
2022-11-26T19:41:25.938Z,27.70
2022-11-26T19:43:54.811Z,26.47
2022-11-26T19:46:24.901Z,28.07
2022-11-26T19:48:54.440Z,28.10
2022-11-26T19:51:26.278Z,28.33
2022-11-26T19:53:55.861Z,27.50
2022-11-26T19:56:25.811Z,29.47
2022-11-26T19:58:55.209Z,27.37
2022-11-26T20:01:23.543Z,28.30
2022-11-26T20:03:51.794Z,29.87
2022-11-26T20:06:22.063Z,28.93
2022-11-26T20:08:51.503Z,30.00
2022-11-26T20:11:20.202Z,28.30
2022-11-26T20:13:50.027Z,28.17
2022-11-26T20:16:20.578Z,29.77
2022-11-26T20:18:49.019Z,29.63
2022-11-26T20:21:20.805Z,28.33
2022-11-26T20:23:49.239Z,28.80
2022-11-26T20:26:21.816Z,29.43
2022-11-26T20:28:50.525Z,28.33
2022-11-26T20:31:23.264Z,28.57
2022-11-26T20:33:53.018Z,27.40
2022-11-26T20:36:23.109Z,27.80
2022-11-26T20:38:53.461Z,28.93
2022-11-26T20:41:23.443Z,26.73
2022-11-26T20:43:57.947Z,27.13
2022-11-26T20:46:27.540Z,27.20
2022-11-26T20:48:56.307Z,27.80
2022-11-26T20:51:24.560Z,26.60
2022-11-26T20:53:53.467Z,26.93
2022-11-26T20:56:23.376Z,26.30
2022-11-26T20:58:51.960Z,25.97
2022-11-26T21:01:22.357Z,26.57
2022-11-26T21:03:51.039Z,25.60
2022-11-26T21:06:25.880Z,25.93
2022-11-26T21:08:57.680Z,25.57
2022-11-26T21:11:27.015Z,26.23
2022-11-26T21:13:54.883Z,26.10
2022-11-26T21:16:23.434Z,26.17
2022-11-26T21:18:53.830Z,25.63
2022-11-26T21:21:22.427Z,26.43
2022-11-26T21:23:50.479Z,24.27
2022-11-26T21:26:19.775Z,24.70
2022-11-26T21:28:52.832Z,26.33
2022-11-26T21:31:21.704Z,25.97
2022-11-26T21:33:55.722Z,26.17
2022-11-26T21:36:25.096Z,26.43
2022-11-26T21:38:53.253Z,24.67
2022-11-26T21:41:22.005Z,25.43
2022-11-26T21:43:50.963Z,25.97
2022-11-26T21:46:22.891Z,24.83
2022-11-26T21:48:52.464Z,24.73
2022-11-26T21:51:20.856Z,24.90
2022-11-26T21:53:49.926Z,24.97
2022-11-26T21:56:21.342Z,25.33
2022-11-26T21:58:49.919Z,23.07
2022-11-26T22:01:23.986Z,23.43
2022-11-26T22:03:53.700Z,25.27
2022-11-26T22:06:24.192Z,24.73
2022-11-26T22:08:52.703Z,25.20
2022-11-26T22:11:24.065Z,24.00
2022-11-26T22:13:52.556Z,23.93
2022-11-26T22:16:23.956Z,25.17
2022-11-26T22:18:56.090Z,25.60
2022-11-26T22:21:25.812Z,23.43
2022-11-26T22:23:54.493Z,23.53
2022-11-26T22:26:22.882Z,24.13
2022-11-26T22:28:52.469Z,23.60
2022-11-26T22:31:25.334Z,24.93
2022-11-26T22:33:56.403Z,25.90
2022-11-26T22:36:29.296Z,25.40
2022-11-26T22:38:58.675Z,26.80
2022-11-26T22:41:27.212Z,25.10
2022-11-26T22:43:55.356Z,24.43
2022-11-26T22:46:25.625Z,25.27
2022-11-26T22:49:00.365Z,24.67
2022-11-26T22:51:30.483Z,25.10
2022-11-26T22:54:00.050Z,25.83
2022-11-26T22:56:28.316Z,25.33
2022-11-26T22:58:56.618Z,22.50
2022-11-26T23:01:27.960Z,23.47
2022-11-26T23:04:01.675Z,24.30
2022-11-26T23:06:31.322Z,22.67
2022-11-26T23:09:01.529Z,23.70
2022-11-26T23:11:31.250Z,22.67
2022-11-26T23:13:59.283Z,24.57
2022-11-26T23:16:29.272Z,23.30
2022-11-26T23:18:58.629Z,22.80
2022-11-26T23:21:28.894Z,22.03
2022-11-26T23:23:57.391Z,22.57
2022-11-26T23:26:27.909Z,22.43
2022-11-26T23:28:56.640Z,21.80
2022-11-26T23:31:26.864Z,20.93
2022-11-26T23:33:56.553Z,21.57
2022-11-26T23:36:25.261Z,22.80
2022-11-26T23:38:53.372Z,20.30
2022-11-26T23:41:21.616Z,20.83
2022-11-26T23:43:49.591Z,22.27
2022-11-26T23:46:19.807Z,20.37
2022-11-26T23:48:48.308Z,19.67
2022-11-26T23:51:19.506Z,18.87
2022-11-26T23:53:49.020Z,19.27
2022-11-26T23:56:19.639Z,19.23
2022-11-26T23:58:49.922Z,19.10
